createdAt,value
2018-04-23T00:00:07.364Z,7.60
2018-04-23T00:02:34.965Z,7.23
2018-04-23T00:05:02.600Z,7.50
2018-04-23T00:07:30.220Z,6.90
2018-04-23T00:09:57.859Z,7.60
2018-04-23T00:12:25.467Z,7.07
2018-04-23T00:14:53.131Z,6.87
2018-04-23T00:17:20.751Z,7.70
2018-04-23T00:19:48.460Z,7.70
2018-04-23T00:22:16.123Z,6.70
2018-04-23T00:24:43.747Z,6.63
2018-04-23T00:27:11.447Z,7.23
2018-04-23T00:29:39.087Z,6.10
2018-04-23T00:32:06.701Z,8.17
2018-04-23T00:34:34.331Z,6.40
2018-04-23T00:37:01.940Z,6.60
2018-04-23T00:39:29.583Z,6.93
2018-04-23T00:41:57.211Z,6.73
2018-04-23T00:44:24.842Z,6.97
2018-04-23T00:46:52.543Z,6.70
2018-04-23T00:49:20.188Z,6.90
2018-04-23T00:51:47.794Z,7.10
2018-04-23T00:54:15.432Z,7.10
2018-04-23T00:56:43.091Z,6.70
2018-04-23T00:59:10.751Z,6.87
2018-04-23T01:01:38.406Z,7.77
2018-04-23T01:04:06.075Z,6.70
2018-04-23T01:06:33.689Z,6.60
2018-04-23T01:09:01.317Z,6.00
2018-04-23T01:11:28.951Z,6.73
2018-04-23T01:13:56.563Z,6.53
2018-04-23T01:16:24.278Z,7.03
2018-04-23T01:18:51.891Z,7.30
2018-04-23T01:21:19.616Z,7.90
2018-04-23T01:23:47.222Z,7.57
2018-04-23T01:26:14.936Z,7.10
2018-04-23T01:28:42.594Z,7.03
2018-04-23T01:31:10.228Z,7.00
2018-04-23T01:33:37.923Z,7.47
2018-04-23T01:36:05.556Z,7.07
2018-04-23T01:38:33.162Z,6.60
2018-04-23T01:41:00.799Z,7.87
2018-04-23T01:43:28.402Z,7.30
2018-04-23T01:45:56.135Z,6.13
2018-04-23T01:48:23.738Z,6.53
2018-04-23T01:50:51.366Z,7.20
2018-04-23T01:53:19.019Z,7.97
2018-04-23T01:55:46.674Z,6.37
2018-04-23T01:58:14.281Z,7.30
2018-04-23T02:00:41.915Z,6.63
2018-04-23T02:03:09.524Z,7.63
2018-04-23T02:05:37.159Z,5.87
2018-04-23T02:08:04.782Z,8.10
2018-04-23T02:10:32.452Z,6.00
2018-04-23T02:13:00.067Z,6.83
2018-04-23T02:15:27.711Z,7.13
2018-04-23T02:17:55.345Z,6.63
2018-04-23T02:20:22.978Z,6.80
2018-04-23T02:22:50.588Z,8.37
2018-04-23T02:25:18.336Z,6.30
2018-04-23T02:27:45.979Z,6.17
2018-04-23T02:30:13.588Z,7.83
2018-04-23T02:32:41.313Z,7.43
2018-04-23T02:35:08.927Z,6.70
2018-04-23T02:37:36.569Z,8.10
2018-04-23T02:40:04.188Z,7.57
2018-04-23T02:42:31.859Z,7.50
2018-04-23T02:44:59.476Z,7.87
2018-04-23T02:47:27.118Z,7.17
2018-04-23T02:49:54.734Z,8.00
2018-04-23T02:52:22.377Z,6.20
2018-04-23T02:54:50.000Z,7.43
2018-04-23T02:57:17.636Z,7.03
2018-04-23T02:59:45.248Z,6.40
2018-04-23T03:02:12.951Z,7.43
2018-04-23T03:04:40.620Z,6.20
2018-04-23T03:07:08.258Z,8.37
2018-04-23T03:09:35.877Z,7.50
2018-04-23T03:12:03.607Z,7.40
2018-04-23T03:14:31.227Z,7.70
2018-04-23T03:16:58.854Z,6.70
2018-04-23T03:19:26.467Z,7.93
2018-04-23T03:21:54.146Z,7.20
2018-04-23T03:24:21.806Z,7.77
2018-04-23T03:26:49.474Z,7.67
2018-04-23T03:29:17.143Z,6.70
2018-04-23T03:31:44.806Z,7.30
2018-04-23T03:34:12.423Z,7.30
2018-04-23T03:36:40.068Z,7.30
2018-04-23T03:39:07.792Z,7.03
2018-04-23T03:41:35.450Z,7.50
2018-04-23T03:44:03.078Z,7.40
2018-04-23T03:46:30.770Z,8.27
2018-04-23T03:48:58.395Z,7.33
2018-04-23T03:51:26.520Z,6.30
2018-04-23T03:53:54.270Z,7.13
2018-04-23T03:56:21.883Z,7.80
2018-04-23T03:58:49.523Z,8.17
2018-04-23T04:01:17.168Z,8.67
2018-04-23T04:03:44.830Z,8.33
2018-04-23T04:06:12.451Z,8.27
2018-04-23T04:08:40.151Z,8.10
2018-04-23T04:11:07.805Z,8.03
2018-04-23T04:13:47.345Z,7.60
2018-04-23T04:16:26.808Z,8.10
2018-04-23T04:18:54.463Z,7.93
2018-04-23T04:21:22.110Z,8.10
2018-04-23T04:23:49.748Z,7.63
2018-04-23T04:26:17.362Z,7.37
2018-04-23T04:28:46.726Z,7.97
2018-04-23T04:31:14.343Z,8.67
2018-04-23T04:33:42.071Z,9.37
2018-04-23T04:36:09.699Z,8.20
2018-04-23T04:38:37.318Z,7.80
2018-04-23T04:41:04.960Z,9.47
2018-04-23T04:43:32.619Z,7.97
2018-04-23T04:46:00.278Z,8.27
2018-04-23T04:48:27.952Z,8.60
2018-04-23T04:50:55.602Z,9.77
2018-04-23T04:53:23.211Z,8.20
2018-04-23T04:55:50.931Z,7.60
2018-04-23T04:58:18.541Z,7.80
2018-04-23T05:00:46.184Z,8.20
2018-04-23T05:03:13.827Z,7.93
2018-04-23T05:05:41.469Z,9.37
2018-04-23T05:08:09.070Z,8.10
2018-04-23T05:10:36.796Z,8.50
2018-04-23T05:13:05.176Z,8.80
2018-04-23T05:15:32.811Z,9.00
2018-04-23T05:18:00.510Z,7.00
2018-04-23T05:20:28.137Z,8.53
2018-04-23T05:22:55.750Z,8.20
2018-04-23T05:25:23.373Z,8.17
2018-04-23T05:27:50.974Z,7.80
2018-04-23T05:30:18.710Z,9.10
2018-04-23T05:32:46.320Z,8.80
2018-04-23T05:35:13.954Z,8.17
2018-04-23T05:37:41.627Z,8.53
2018-04-23T05:40:09.363Z,8.83
2018-04-23T05:42:36.966Z,7.07
2018-04-23T05:45:04.650Z,7.87
2018-04-23T05:47:32.286Z,7.73
2018-04-23T05:49:59.900Z,8.80
2018-04-23T05:52:27.526Z,8.00
2018-04-23T05:54:55.136Z,8.97
2018-04-23T05:57:22.792Z,6.83
2018-04-23T05:59:50.402Z,7.97
2018-04-23T06:02:18.031Z,8.23
2018-04-23T06:04:45.718Z,9.70
2018-04-23T06:07:13.349Z,7.53
2018-04-23T06:09:41.003Z,8.07
2018-04-23T06:12:08.676Z,7.57
2018-04-23T06:14:36.443Z,8.90
2018-04-23T06:17:04.078Z,8.20
2018-04-23T06:19:31.767Z,8.13
2018-04-23T06:21:59.427Z,7.30
2018-04-23T06:24:27.080Z,8.10
2018-04-23T06:26:54.756Z,8.77
2018-04-23T06:29:22.371Z,7.63
2018-04-23T06:31:50.034Z,7.90
2018-04-23T06:34:17.643Z,8.27
2018-04-23T06:36:45.299Z,7.50
2018-04-23T06:39:12.910Z,7.73
2018-04-23T06:41:40.542Z,8.10
2018-04-23T06:44:08.184Z,8.47
2018-04-23T06:46:35.835Z,7.90
2018-04-23T06:49:03.448Z,7.80
2018-04-23T06:51:31.172Z,7.60
2018-04-23T06:53:58.791Z,7.07
2018-04-23T06:56:26.486Z,7.70
2018-04-23T06:58:54.164Z,7.90
2018-04-23T07:01:21.818Z,7.70
2018-04-23T07:03:49.446Z,7.90
2018-04-23T07:06:17.138Z,7.50
2018-04-23T07:08:44.812Z,8.03
2018-04-23T07:11:12.432Z,8.77
2018-04-23T07:13:40.094Z,8.27
2018-04-23T07:16:07.801Z,9.10
2018-04-23T07:18:35.450Z,8.93
2018-04-23T07:21:03.053Z,9.00
2018-04-23T07:23:30.784Z,9.50
2018-04-23T07:25:58.454Z,9.53
2018-04-23T07:28:26.099Z,8.77
2018-04-23T07:30:53.763Z,9.67
2018-04-23T07:33:21.434Z,9.27
2018-04-23T07:35:49.191Z,10.10
2018-04-23T07:38:16.853Z,8.80
2018-04-23T07:40:44.491Z,31.97
2018-04-23T07:43:12.137Z,24.40
2018-04-23T07:45:39.846Z,10.57
2018-04-23T07:48:07.479Z,9.00
2018-04-23T07:50:35.105Z,10.00
2018-04-23T07:53:02.738Z,10.40
2018-04-23T07:55:30.360Z,12.60
2018-04-23T07:57:58.011Z,11.03
2018-04-23T08:00:25.636Z,10.70
2018-04-23T08:02:53.388Z,11.43
2018-04-23T08:05:21.002Z,11.30
2018-04-23T08:07:48.644Z,10.73
2018-04-23T08:10:16.376Z,11.33
2018-04-23T08:12:44.040Z,11.33
2018-04-23T08:15:11.675Z,11.23
2018-04-23T08:17:39.300Z,12.33
2018-04-23T08:20:07.032Z,12.10
2018-04-23T08:22:34.650Z,12.50
2018-04-23T08:25:02.292Z,12.57
2018-04-23T08:27:29.910Z,13.57
2018-04-23T08:29:57.552Z,13.40
2018-04-23T08:32:25.165Z,13.50
2018-04-23T08:34:52.795Z,14.83
2018-04-23T08:37:20.411Z,12.57
2018-04-23T08:39:48.123Z,12.77
2018-04-23T08:42:15.787Z,13.63
2018-04-23T08:44:43.436Z,12.97
2018-04-23T08:47:11.046Z,11.77
2018-04-23T08:49:38.682Z,12.13
2018-04-23T08:52:06.299Z,13.17
2018-04-23T08:54:33.934Z,12.93
2018-04-23T08:57:01.659Z,13.83
2018-04-23T08:59:29.298Z,13.40
2018-04-23T09:01:56.984Z,14.63
2018-04-23T09:04:24.647Z,13.37
2018-04-23T09:06:52.262Z,14.30
2018-04-23T09:09:19.971Z,12.20
2018-04-23T09:11:47.665Z,14.20
2018-04-23T09:14:15.303Z,13.07
2018-04-23T09:16:42.913Z,13.73
2018-04-23T09:19:10.560Z,13.40
2018-04-23T09:21:38.174Z,14.20
2018-04-23T09:24:05.806Z,12.90
2018-04-23T09:26:33.447Z,13.83
2018-04-23T09:29:01.062Z,13.20
2018-04-23T09:31:28.724Z,13.67
2018-04-23T09:33:56.335Z,16.50
2018-04-23T09:36:24.046Z,13.90
2018-04-23T09:38:51.710Z,16.70
2018-04-23T09:41:19.380Z,16.97
2018-04-23T09:43:47.035Z,17.10
2018-04-23T09:46:14.673Z,17.37
2018-04-23T09:48:42.358Z,16.87
2018-04-23T09:51:10.019Z,17.90
2018-04-23T09:53:37.682Z,17.93
2018-04-23T09:56:05.311Z,16.17
2018-04-23T09:58:32.931Z,16.00
2018-04-23T10:01:00.576Z,15.00
2018-04-23T10:03:43.995Z,14.77
2018-04-23T10:06:16.578Z,15.33
2018-04-23T10:08:44.199Z,13.83
2018-04-23T10:11:11.843Z,14.70
2018-04-23T10:13:39.576Z,13.47
2018-04-23T10:16:07.226Z,13.30
2018-04-23T10:18:34.839Z,12.63
2018-04-23T10:21:02.520Z,14.03
2018-04-23T10:23:30.118Z,14.20
2018-04-23T10:25:57.796Z,13.10
2018-04-23T10:28:25.448Z,13.87
2018-04-23T10:30:53.096Z,13.30
2018-04-23T10:33:20.761Z,10.03
2018-04-23T10:35:48.430Z,12.03
2018-04-23T10:38:16.048Z,12.60
2018-04-23T10:40:43.747Z,13.17
2018-04-23T10:43:11.353Z,13.93
2018-04-23T10:45:38.987Z,13.93
2018-04-23T10:48:06.650Z,13.30
2018-04-23T10:50:34.265Z,13.20
2018-04-23T10:53:01.920Z,12.47
2018-04-23T10:55:29.531Z,13.23
2018-04-23T10:57:57.191Z,14.90
2018-04-23T11:00:24.812Z,14.93
2018-04-23T11:02:52.520Z,14.03
2018-04-23T11:05:20.139Z,15.00
2018-04-23T11:07:47.796Z,15.13
2018-04-23T11:10:15.493Z,15.13
2018-04-23T11:12:43.156Z,15.27
2018-04-23T11:15:10.779Z,14.00
2018-04-23T11:17:38.418Z,13.97
2018-04-23T11:20:06.052Z,13.93
2018-04-23T11:22:33.697Z,14.53
2018-04-23T11:25:01.306Z,15.63
2018-04-23T11:27:28.951Z,15.20
2018-04-23T11:29:56.572Z,14.67
2018-04-23T11:32:24.272Z,14.87
2018-04-23T11:34:51.927Z,16.03
2018-04-23T11:37:19.563Z,13.47
2018-04-23T11:39:47.239Z,17.97
2018-04-23T11:42:14.900Z,15.57
2018-04-23T11:44:42.576Z,17.17
2018-04-23T11:47:10.211Z,19.83
2018-04-23T11:49:37.826Z,19.83
2018-04-23T11:52:05.551Z,20.30
2018-04-23T11:54:33.231Z,19.80
2018-04-23T11:57:00.978Z,19.10
2018-04-23T11:59:28.651Z,16.63
2018-04-23T12:01:56.290Z,14.30
2018-04-23T12:04:23.947Z,16.47
2018-04-23T12:06:51.546Z,15.00
2018-04-23T12:09:19.290Z,15.43
2018-04-23T12:11:46.958Z,15.10
2018-04-23T12:14:14.723Z,16.60
2018-04-23T12:16:42.370Z,18.33
2018-04-23T12:19:10.043Z,18.20
2018-04-23T12:21:37.737Z,16.10
2018-04-23T12:24:05.369Z,17.53
2018-04-23T12:26:32.992Z,15.73
2018-04-23T12:29:00.704Z,15.10
2018-04-23T12:31:28.375Z,16.97
2018-04-23T12:33:56.094Z,19.10
2018-04-23T12:36:23.799Z,16.80
2018-04-23T12:38:51.449Z,17.00
2018-04-23T12:41:19.058Z,14.90
2018-04-23T12:43:46.774Z,18.60
2018-04-23T12:46:14.483Z,23.80
2018-04-23T12:48:42.120Z,26.80
2018-04-23T12:51:09.757Z,26.30
2018-04-23T12:53:37.426Z,28.63
2018-04-23T12:56:05.048Z,27.13
2018-04-23T12:58:32.691Z,30.17
2018-04-23T13:01:00.409Z,27.30
2018-04-23T13:03:28.038Z,29.23
2018-04-23T13:05:55.738Z,28.60
2018-04-23T13:08:23.374Z,24.00
2018-04-23T13:10:50.994Z,28.03
2018-04-23T13:13:18.635Z,28.60
2018-04-23T13:15:46.296Z,25.90
2018-04-23T13:18:13.942Z,25.97
2018-04-23T13:20:41.914Z,28.37
2018-04-23T13:23:09.556Z,21.50
2018-04-23T13:25:37.187Z,25.40
2018-04-23T13:28:04.916Z,22.53
2018-04-23T13:30:32.581Z,22.63
2018-04-23T13:33:00.194Z,22.17
2018-04-23T13:35:27.900Z,22.33
2018-04-23T13:37:55.514Z,22.10
2018-04-23T13:40:23.147Z,20.73
2018-04-23T13:42:50.759Z,22.57
2018-04-23T13:45:18.455Z,23.97
2018-04-23T13:47:46.070Z,23.10
2018-04-23T13:50:13.767Z,24.27
2018-04-23T13:52:41.366Z,22.77
2018-04-23T13:55:09.007Z,25.00
2018-04-23T13:57:36.649Z,21.67
2018-04-23T14:00:04.287Z,23.43
2018-04-23T14:02:31.898Z,23.63
2018-04-23T14:04:59.535Z,23.33
2018-04-23T14:07:27.149Z,23.40
2018-04-23T14:09:54.794Z,23.50
2018-04-23T14:12:22.403Z,21.73
2018-04-23T14:14:50.081Z,22.67
2018-04-23T14:17:17.740Z,24.57
2018-04-23T14:19:45.369Z,24.43
2018-04-23T14:22:12.988Z,23.10
2018-04-23T14:24:40.829Z,21.53
2018-04-23T14:27:08.494Z,21.73
2018-04-23T14:29:36.139Z,21.27
2018-04-23T14:32:03.760Z,23.07
2018-04-23T14:34:31.407Z,23.50
2018-04-23T14:36:59.028Z,21.87
2018-04-23T14:39:26.671Z,23.43
2018-04-23T14:41:54.278Z,23.87
2018-04-23T14:44:22.032Z,26.13
2018-04-23T14:46:49.698Z,24.20
2018-04-23T14:49:17.359Z,25.87
2018-04-23T14:51:44.979Z,22.27
2018-04-23T14:54:12.610Z,24.70
2018-04-23T14:56:40.222Z,22.93
2018-04-23T14:59:07.902Z,27.90
2018-04-23T15:01:35.571Z,26.73
2018-04-23T15:04:03.192Z,27.93
2018-04-23T15:06:30.835Z,26.43
2018-04-23T15:08:58.464Z,24.10
2018-04-23T15:11:26.109Z,26.50
2018-04-23T15:13:53.784Z,23.60
2018-04-23T15:16:21.534Z,21.90
2018-04-23T15:18:49.162Z,22.87
2018-04-23T15:21:16.875Z,21.87
2018-04-23T15:23:44.496Z,21.10
2018-04-23T15:26:12.186Z,19.10
2018-04-23T15:28:39.803Z,17.67
2018-04-23T15:31:07.524Z,17.60
2018-04-23T15:33:35.178Z,17.73
2018-04-23T15:36:02.840Z,16.70
2018-04-23T15:38:30.504Z,16.40
2018-04-23T15:40:58.176Z,14.13
2018-04-23T15:43:25.827Z,16.60
2018-04-23T15:45:53.458Z,12.97
2018-04-23T15:48:21.079Z,12.90
2018-04-23T15:50:48.911Z,11.53
2018-04-23T15:53:16.578Z,12.47
2018-04-23T15:55:44.223Z,12.17
2018-04-23T15:58:11.839Z,11.43
2018-04-23T16:00:39.474Z,11.30
2018-04-23T16:03:07.096Z,11.67
2018-04-23T16:05:34.740Z,10.13
2018-04-23T16:08:02.451Z,10.40
2018-04-23T16:10:30.110Z,9.50
2018-04-23T16:12:57.718Z,6.80
2018-04-23T16:15:25.360Z,4.57
2018-04-23T16:17:53.009Z,4.73
2018-04-23T16:20:20.667Z,4.60
2018-04-23T16:22:48.322Z,4.87
2018-04-23T16:25:15.957Z,6.20
2018-04-23T16:27:43.570Z,4.90
2018-04-23T16:30:11.202Z,7.00
2018-04-23T16:32:38.877Z,6.33
2018-04-23T16:35:06.530Z,5.90
2018-04-23T16:37:34.255Z,6.27
2018-04-23T16:40:01.970Z,4.93
2018-04-23T16:42:29.591Z,5.57
2018-04-23T16:44:57.295Z,4.90
2018-04-23T16:47:24.959Z,5.60
2018-04-23T16:49:52.576Z,4.87
2018-04-23T16:52:20.229Z,5.60
2018-04-23T16:54:47.888Z,5.33
2018-04-23T16:57:15.592Z,5.47
2018-04-23T16:59:43.255Z,5.00
2018-04-23T17:02:10.918Z,5.40
2018-04-23T17:04:38.591Z,5.10
2018-04-23T17:07:06.264Z,6.63
2018-04-23T17:09:33.880Z,5.07
2018-04-23T17:12:01.571Z,5.33
2018-04-23T17:14:29.231Z,5.20
2018-04-23T17:16:56.867Z,5.70
2018-04-23T17:19:24.563Z,6.20
2018-04-23T17:21:52.227Z,4.97
2018-04-23T17:24:19.882Z,4.60
2018-04-23T17:26:47.546Z,5.03
2018-04-23T17:29:15.159Z,4.50
2018-04-23T17:31:42.789Z,5.67
2018-04-23T17:34:10.394Z,4.90
2018-04-23T17:36:38.028Z,4.73
2018-04-23T17:39:06.396Z,4.60
2018-04-23T17:41:34.132Z,5.37
2018-04-23T17:44:01.784Z,4.90
2018-04-23T17:46:29.420Z,4.93
2018-04-23T17:48:57.035Z,4.20
2018-04-23T17:51:24.696Z,3.37
2018-04-23T17:53:52.301Z,4.20
2018-04-23T17:56:19.937Z,4.10
2018-04-23T17:58:47.625Z,3.80
2018-04-23T18:01:15.263Z,4.03
2018-04-23T18:03:42.995Z,3.83
2018-04-23T18:06:10.657Z,4.60
2018-04-23T18:08:38.257Z,4.57
2018-04-23T18:11:06.011Z,4.83
2018-04-23T18:13:33.642Z,4.53
2018-04-23T18:16:01.315Z,5.20
2018-04-23T18:18:28.956Z,4.40
2018-04-23T18:20:56.641Z,4.23
2018-04-23T18:23:24.294Z,4.73
2018-04-23T18:25:51.898Z,5.17
2018-04-23T18:28:19.531Z,4.70
2018-04-23T18:30:47.178Z,4.70
2018-04-23T18:33:14.812Z,4.27
2018-04-23T18:35:42.510Z,4.20
2018-04-23T18:38:10.138Z,4.70
2018-04-23T18:40:37.830Z,4.80
2018-04-23T18:43:05.607Z,4.30
2018-04-23T18:45:33.210Z,4.87
2018-04-23T18:48:00.838Z,4.43
2018-04-23T18:50:28.478Z,5.17
2018-04-23T18:52:56.119Z,4.43
2018-04-23T18:55:23.802Z,4.53
2018-04-23T18:57:51.439Z,3.50
2018-04-23T19:00:19.126Z,3.33
2018-04-23T19:02:46.764Z,2.73
2018-04-23T19:05:14.378Z,2.83
2018-04-23T19:07:42.127Z,2.90
2018-04-23T19:10:09.739Z,3.27
2018-04-23T19:12:37.442Z,3.90
2018-04-23T19:15:05.113Z,3.10
2018-04-23T19:17:32.775Z,3.40
2018-04-23T19:20:00.378Z,3.23
2018-04-23T19:22:28.002Z,2.00
2018-04-23T19:24:55.650Z,2.20
2018-04-23T19:27:23.334Z,2.90
2018-04-23T19:29:50.951Z,2.40
2018-04-23T19:32:18.638Z,2.83
2018-04-23T19:34:46.307Z,2.43
2018-04-23T19:37:13.919Z,2.93
2018-04-23T19:39:41.548Z,3.70
2018-04-23T19:42:09.186Z,3.13
2018-04-23T19:44:36.830Z,2.50
2018-04-23T19:47:04.517Z,2.60
2018-04-23T19:49:32.130Z,3.20
2018-04-23T19:51:59.950Z,3.43
2018-04-23T19:54:27.608Z,3.60
2018-04-23T19:56:55.219Z,3.07
2018-04-23T19:59:22.863Z,2.80
2018-04-23T20:01:50.486Z,2.43
2018-04-23T20:04:18.119Z,2.47
2018-04-23T20:06:45.833Z,2.57
2018-04-23T20:09:13.466Z,2.10
2018-04-23T20:11:41.075Z,1.80
2018-04-23T20:14:08.707Z,1.80
2018-04-23T20:16:36.329Z,1.90
2018-04-23T20:19:03.964Z,1.93
2018-04-23T20:21:31.682Z,1.70
2018-04-23T20:23:59.320Z,2.20
2018-04-23T20:26:27.005Z,1.70
2018-04-23T20:28:54.630Z,2.20
2018-04-23T20:31:22.330Z,2.27
2018-04-23T20:33:49.983Z,2.07
2018-04-23T20:36:17.659Z,2.03
2018-04-23T20:38:45.317Z,2.53
2018-04-23T20:41:12.988Z,1.73
2018-04-23T20:43:41.250Z,3.00
2018-04-23T20:46:08.886Z,2.33
2018-04-23T20:48:36.487Z,2.20
2018-04-23T20:51:04.145Z,2.10
2018-04-23T20:53:31.769Z,2.10
2018-04-23T20:55:59.398Z,2.20
2018-04-23T20:58:27.008Z,2.10
2018-04-23T21:00:54.684Z,2.53
2018-04-23T21:03:22.267Z,2.37
2018-04-23T21:05:49.905Z,1.80
2018-04-23T21:08:17.520Z,2.20
2018-04-23T21:10:45.344Z,2.43
2018-04-23T21:13:13.011Z,1.93
2018-04-23T21:15:40.640Z,2.40
2018-04-23T21:18:08.330Z,2.27
2018-04-23T21:20:35.965Z,2.37
2018-04-23T21:23:03.566Z,2.43
2018-04-23T21:25:31.215Z,2.40
2018-04-23T21:27:58.836Z,2.97
2018-04-23T21:30:26.471Z,2.90
2018-04-23T21:32:54.069Z,2.00
2018-04-23T21:35:21.699Z,1.93
2018-04-23T21:37:49.306Z,2.00
2018-04-23T21:40:16.941Z,2.77
2018-04-23T21:42:44.543Z,2.23
2018-04-23T21:45:12.181Z,2.53
2018-04-23T21:47:39.792Z,2.73
2018-04-23T21:50:07.422Z,3.30
2018-04-23T21:52:35.039Z,2.87
2018-04-23T21:55:02.691Z,2.60
2018-04-23T21:57:30.314Z,2.77
2018-04-23T21:59:57.977Z,2.53
2018-04-23T22:02:25.603Z,2.70
2018-04-23T22:04:53.559Z,2.93
2018-04-23T22:07:21.279Z,3.10
2018-04-23T22:09:48.943Z,3.17
2018-04-23T22:12:16.584Z,2.97
2018-04-23T22:14:44.190Z,3.30
2018-04-23T22:17:11.817Z,2.83
2018-04-23T22:19:39.428Z,3.13
2018-04-23T22:22:07.146Z,3.10
2018-04-23T22:24:34.820Z,2.50
2018-04-23T22:27:02.479Z,3.13
2018-04-23T22:29:30.144Z,2.60
2018-04-23T22:31:57.771Z,2.73
2018-04-23T22:34:25.383Z,3.10
2018-04-23T22:36:53.014Z,2.43
2018-04-23T22:39:20.688Z,3.13
2018-04-23T22:41:48.342Z,2.70
2018-04-23T22:44:15.956Z,2.27
2018-04-23T22:46:43.588Z,3.03
2018-04-23T22:49:11.190Z,2.70
2018-04-23T22:51:38.890Z,3.30
2018-04-23T22:54:06.554Z,2.90
2018-04-23T22:56:34.192Z,2.50
2018-04-23T22:59:01.810Z,3.20
2018-04-23T23:01:29.538Z,2.93
2018-04-23T23:03:57.147Z,2.30
2018-04-23T23:06:24.861Z,3.13
2018-04-23T23:08:52.523Z,3.37
2018-04-23T23:11:20.124Z,3.30
2018-04-23T23:13:47.849Z,2.77
2018-04-23T23:16:15.458Z,2.80
2018-04-23T23:18:43.095Z,2.80
2018-04-23T23:21:10.714Z,2.77
2018-04-23T23:23:38.404Z,2.83
2018-04-23T23:26:06.011Z,2.80
2018-04-23T23:28:33.643Z,3.17
2018-04-23T23:31:01.260Z,3.50
2018-04-23T23:33:28.946Z,3.40
2018-04-23T23:35:56.619Z,2.70
2018-04-23T23:38:24.259Z,3.43
2018-04-23T23:40:51.872Z,2.97
2018-04-23T23:43:19.503Z,3.20
2018-04-23T23:45:47.105Z,4.03
2018-04-23T23:48:14.730Z,3.13
2018-04-23T23:50:42.329Z,3.30
2018-04-23T23:53:10.043Z,3.07
2018-04-23T23:55:37.715Z,3.30
2018-04-23T23:58:05.342Z,3.83
